createdAt,value
2022-11-17T00:01:19.842Z,25.77
2022-11-17T00:03:48.542Z,24.35
2022-11-17T00:06:15.845Z,24.00
2022-11-17T00:08:42.417Z,22.77
2022-11-17T00:11:08.822Z,24.80
2022-11-17T00:13:54.498Z,24.73
2022-11-17T00:16:21.888Z,22.30
2022-11-17T00:19:07.108Z,24.20
2022-11-17T00:21:34.127Z,22.55
2022-11-17T00:24:00.599Z,25.00
2022-11-17T00:26:29.587Z,23.60
2022-11-17T00:29:00.672Z,23.27
2022-11-17T00:31:47.738Z,23.42
2022-11-17T00:34:22.171Z,23.50
2022-11-17T00:36:50.688Z,22.47
2022-11-17T00:39:18.754Z,23.90
2022-11-17T00:41:45.399Z,23.77
2022-11-17T00:44:13.950Z,23.75
2022-11-17T00:46:41.183Z,22.17
2022-11-17T00:49:08.731Z,23.90
2022-11-17T00:51:36.067Z,21.40
2022-11-17T00:54:03.743Z,22.73
2022-11-17T00:56:30.240Z,22.13
2022-11-17T00:58:56.623Z,26.70
2022-11-17T01:01:23.487Z,21.43
2022-11-17T01:03:49.922Z,19.23
2022-11-17T01:06:19.236Z,20.35
2022-11-17T01:08:46.417Z,24.42
2022-11-17T01:11:15.858Z,23.73
2022-11-17T01:13:43.301Z,23.00
2022-11-17T01:16:12.934Z,23.43
2022-11-17T01:18:40.023Z,20.40
2022-11-17T01:21:12.474Z,21.38
2022-11-17T01:23:40.578Z,22.00
2022-11-17T01:26:12.614Z,26.73
2022-11-17T01:28:39.400Z,22.03
2022-11-17T01:31:11.582Z,24.55
2022-11-17T01:33:38.436Z,24.52
2022-11-17T01:36:07.567Z,21.20
2022-11-17T01:38:34.430Z,19.98
2022-11-17T01:41:02.761Z,21.57
2022-11-17T01:43:52.607Z,23.08
2022-11-17T01:46:39.370Z,21.00
2022-11-17T01:49:25.185Z,22.60
2022-11-17T01:51:59.231Z,22.40
2022-11-17T01:54:29.232Z,22.50
2022-11-17T01:57:04.916Z,24.20
2022-11-17T01:59:37.794Z,24.38
2022-11-17T02:02:04.297Z,20.27
2022-11-17T02:04:35.833Z,24.42
2022-11-17T02:07:26.932Z,22.27
2022-11-17T02:09:54.053Z,21.42
2022-11-17T02:12:22.130Z,22.70
2022-11-17T02:14:50.477Z,21.48
2022-11-17T02:17:18.255Z,21.48
2022-11-17T02:19:52.771Z,17.87
2022-11-17T02:22:48.674Z,21.55
2022-11-17T02:25:33.465Z,21.40
2022-11-17T02:28:23.038Z,20.95
2022-11-17T02:30:55.860Z,20.63
2022-11-17T02:33:56.820Z,22.33
2022-11-17T02:36:31.308Z,23.92
2022-11-17T02:39:11.943Z,21.38
2022-11-17T02:42:03.395Z,19.17
2022-11-17T02:44:41.240Z,21.63
2022-11-17T02:47:14.757Z,18.73
2022-11-17T02:50:00.699Z,21.08
2022-11-17T02:52:29.239Z,20.42
2022-11-17T02:55:02.956Z,21.13
2022-11-17T02:57:32.052Z,20.77
2022-11-17T03:00:05.782Z,20.53
2022-11-17T03:02:55.721Z,22.65
2022-11-17T03:05:33.194Z,19.10
2022-11-17T03:08:21.394Z,20.92
2022-11-17T03:10:58.718Z,21.98
2022-11-17T03:13:43.434Z,22.10
2022-11-17T03:16:18.929Z,22.73
2022-11-17T03:19:14.410Z,23.20
2022-11-17T03:21:47.889Z,27.08
2022-11-17T03:24:21.336Z,20.08
2022-11-17T03:26:55.363Z,22.97
2022-11-17T03:29:25.237Z,23.58
2022-11-17T03:31:59.447Z,24.30
2022-11-17T03:34:29.798Z,24.98
2022-11-17T03:37:00.732Z,22.38
2022-11-17T03:39:41.492Z,26.33
2022-11-17T03:42:18.751Z,26.13
2022-11-17T03:44:50.811Z,24.70
2022-11-17T03:47:20.777Z,27.08
2022-11-17T03:50:10.019Z,26.70
2022-11-17T03:52:37.967Z,28.40
2022-11-17T03:55:06.153Z,26.90
2022-11-17T03:57:51.894Z,26.33
2022-11-17T04:00:19.689Z,29.70
2022-11-17T04:02:48.639Z,28.38
2022-11-17T04:05:17.649Z,24.33
2022-11-17T04:07:46.994Z,25.25
2022-11-17T04:10:17.675Z,28.27
2022-11-17T04:13:03.553Z,27.92
2022-11-17T04:15:48.751Z,24.60
2022-11-17T04:18:15.482Z,26.93
2022-11-17T04:20:42.274Z,26.75
2022-11-17T04:23:14.657Z,25.63
2022-11-17T04:26:04.779Z,25.67
2022-11-17T04:28:38.981Z,24.48
2022-11-17T04:31:26.322Z,28.53
2022-11-17T04:33:58.138Z,24.42
2022-11-17T04:36:44.777Z,28.83
2022-11-17T04:39:15.610Z,25.95
2022-11-17T04:41:54.625Z,25.23
2022-11-17T04:44:26.424Z,26.07
2022-11-17T04:46:53.979Z,26.13
2022-11-17T04:49:21.805Z,26.58
2022-11-17T04:51:49.201Z,28.15
2022-11-17T04:54:17.960Z,26.10
2022-11-17T04:56:44.945Z,24.50
2022-11-17T04:59:11.606Z,22.38
2022-11-17T05:01:38.418Z,22.77
2022-11-17T05:04:10.045Z,21.10
2022-11-17T05:06:42.278Z,22.00
2022-11-17T05:09:11.592Z,22.37
2022-11-17T05:11:56.779Z,24.15
2022-11-17T05:14:24.925Z,20.15
2022-11-17T05:17:11.614Z,19.27
2022-11-17T05:19:41.480Z,18.23
2022-11-17T05:22:27.793Z,18.57
2022-11-17T05:24:55.254Z,18.35
2022-11-17T05:27:23.490Z,19.17
2022-11-17T05:29:50.267Z,18.77
2022-11-17T05:32:16.883Z,17.65
2022-11-17T05:34:43.328Z,17.83
2022-11-17T05:37:09.846Z,17.55
2022-11-17T05:39:36.276Z,19.48
2022-11-17T05:42:02.748Z,15.45
2022-11-17T05:44:29.175Z,16.15
2022-11-17T05:46:55.543Z,14.67
2022-11-17T05:49:21.899Z,18.58
2022-11-17T05:51:52.489Z,16.38
2022-11-17T05:54:19.432Z,16.27
2022-11-17T05:57:02.973Z,15.35
2022-11-17T05:59:50.257Z,18.13
2022-11-17T06:02:25.045Z,17.63
2022-11-17T06:04:51.595Z,19.45
2022-11-17T06:07:19.465Z,16.63
2022-11-17T06:09:46.748Z,15.48
2022-11-17T06:12:13.327Z,15.97
2022-11-17T06:14:39.791Z,17.73
2022-11-17T06:17:13.461Z,17.48
2022-11-17T06:19:50.101Z,17.65
2022-11-17T06:22:16.545Z,17.98
2022-11-17T06:24:45.061Z,15.50
2022-11-17T06:27:16.047Z,19.08
2022-11-17T06:29:44.926Z,15.48
2022-11-17T06:32:13.882Z,15.00
2022-11-17T06:34:41.155Z,14.70
2022-11-17T06:37:07.542Z,16.77
2022-11-17T06:39:33.881Z,16.00
2022-11-17T06:42:00.218Z,17.17
2022-11-17T06:44:26.573Z,19.73
2022-11-17T06:46:52.913Z,19.45
2022-11-17T06:49:19.310Z,16.47
2022-11-17T06:51:45.904Z,16.77
2022-11-17T06:54:14.434Z,15.80
2022-11-17T06:56:40.984Z,15.23
2022-11-17T06:59:07.397Z,16.02
2022-11-17T07:01:33.828Z,16.00
2022-11-17T07:04:00.295Z,16.20
2022-11-17T07:06:26.713Z,14.32
2022-11-17T07:08:53.132Z,14.68
2022-11-17T07:11:19.823Z,14.82
2022-11-17T07:13:46.433Z,13.53
2022-11-17T07:16:23.205Z,15.23
2022-11-17T07:18:50.647Z,11.75
2022-11-17T07:21:17.957Z,15.43
2022-11-17T07:23:45.674Z,14.45
2022-11-17T07:26:12.152Z,11.37
2022-11-17T07:28:38.852Z,13.20
2022-11-17T07:31:07.765Z,11.02
2022-11-17T07:33:34.449Z,14.30
2022-11-17T07:36:12.054Z,11.68
2022-11-17T07:38:40.074Z,12.13
2022-11-17T07:41:08.751Z,12.75
2022-11-17T07:43:36.156Z,14.90
2022-11-17T07:46:11.069Z,10.60
2022-11-17T07:48:37.957Z,12.10
2022-11-17T07:51:05.095Z,11.57
2022-11-17T07:53:33.398Z,11.52
2022-11-17T07:56:08.419Z,12.38
2022-11-17T07:58:35.555Z,10.93
2022-11-17T08:01:11.227Z,11.38
2022-11-17T08:03:37.748Z,11.70
2022-11-17T08:06:05.849Z,11.32
2022-11-17T08:08:32.792Z,11.50
2022-11-17T08:11:10.883Z,13.13
2022-11-17T08:13:38.413Z,13.15
2022-11-17T08:16:06.382Z,11.93
2022-11-17T08:18:33.978Z,11.15
2022-11-17T08:21:09.099Z,13.75
2022-11-17T08:23:37.389Z,14.13
2022-11-17T08:26:04.879Z,13.25
2022-11-17T08:28:31.431Z,13.20
2022-11-17T08:31:01.528Z,14.05
2022-11-17T08:33:28.524Z,16.02
2022-11-17T08:35:58.484Z,13.70
2022-11-17T08:38:29.043Z,13.45
2022-11-17T08:41:01.419Z,14.63
2022-11-17T08:43:27.838Z,14.38
2022-11-17T08:45:54.276Z,14.25
2022-11-17T08:48:20.883Z,14.15
2022-11-17T08:50:47.858Z,13.88
2022-11-17T08:53:15.908Z,15.43
2022-11-17T08:55:42.663Z,16.25
2022-11-17T08:58:10.238Z,15.20
2022-11-17T09:00:36.764Z,14.30
2022-11-17T09:03:07.787Z,14.48
2022-11-17T09:05:38.759Z,15.50
2022-11-17T09:08:29.752Z,13.43
2022-11-17T09:10:51.878Z,12.80
2022-11-17T09:13:18.830Z,14.32
2022-11-17T09:15:45.483Z,14.25
2022-11-17T09:18:12.059Z,12.43
2022-11-17T09:20:44.255Z,15.93
2022-11-17T09:23:11.978Z,13.75
2022-11-17T09:25:38.356Z,14.27
2022-11-17T09:28:04.912Z,14.18
2022-11-17T09:30:31.262Z,14.20
2022-11-17T09:32:57.883Z,14.02
2022-11-17T09:35:24.327Z,15.10
2022-11-17T09:37:50.677Z,12.15
2022-11-17T09:40:19.549Z,12.48
2022-11-17T09:42:46.645Z,14.97
2022-11-17T09:45:27.904Z,13.00
2022-11-17T09:48:41.988Z,13.02
2022-11-17T09:51:02.792Z,13.35
2022-11-17T09:53:54.046Z,12.57
2022-11-17T09:56:21.024Z,12.83
2022-11-17T09:58:57.142Z,12.98
2022-11-17T10:01:23.655Z,14.27
2022-11-17T10:03:51.341Z,14.63
2022-11-17T10:06:21.623Z,14.40
2022-11-17T10:09:25.383Z,13.53
2022-11-17T10:11:54.326Z,15.25
2022-11-17T10:14:22.232Z,14.00
2022-11-17T10:16:57.209Z,14.07
2022-11-17T10:19:26.470Z,12.40
2022-11-17T10:22:16.234Z,14.97
2022-11-17T10:24:48.047Z,14.20
2022-11-17T10:27:17.235Z,12.95
2022-11-17T10:30:21.047Z,13.43
2022-11-17T10:32:55.939Z,13.38
2022-11-17T10:35:36.680Z,13.23
2022-11-17T10:38:17.336Z,13.55
2022-11-17T10:40:43.690Z,13.95
2022-11-17T10:43:13.085Z,14.60
2022-11-17T10:45:51.702Z,15.63
2022-11-17T10:48:34.651Z,13.93
2022-11-17T10:51:02.271Z,15.50
2022-11-17T10:53:31.762Z,14.50
2022-11-17T10:56:21.455Z,14.40
2022-11-17T10:58:57.914Z,16.00
2022-11-17T11:01:29.658Z,12.80
2022-11-17T11:03:56.115Z,13.20
2022-11-17T11:06:29.476Z,14.98
2022-11-17T11:09:12.255Z,16.48
2022-11-17T11:11:48.104Z,13.52
2022-11-17T11:14:19.825Z,14.83
2022-11-17T11:16:48.579Z,16.33
2022-11-17T11:19:17.750Z,15.07
2022-11-17T11:22:08.152Z,14.73
2022-11-17T11:25:09.603Z,13.85
2022-11-17T11:28:07.015Z,16.13
2022-11-17T11:30:42.405Z,16.40
2022-11-17T11:33:35.060Z,13.05
2022-11-17T11:36:33.545Z,17.48
2022-11-17T11:39:21.507Z,17.45
2022-11-17T11:42:08.156Z,17.30
2022-11-17T11:44:57.851Z,15.63
2022-11-17T11:47:45.578Z,17.15
2022-11-17T11:50:26.020Z,15.95
2022-11-17T11:53:18.473Z,16.95
2022-11-17T11:55:49.239Z,16.17
2022-11-17T11:58:21.652Z,16.25
2022-11-17T12:00:53.268Z,13.95
2022-11-17T12:03:26.140Z,15.45
2022-11-17T12:06:31.365Z,15.43
2022-11-17T12:09:04.662Z,15.43
2022-11-17T12:11:50.766Z,14.38
2022-11-17T12:14:18.838Z,14.85
2022-11-17T12:16:47.867Z,15.80
2022-11-17T12:19:49.854Z,14.75
2022-11-17T12:22:21.228Z,13.23
2022-11-17T12:24:47.762Z,14.43
2022-11-17T12:27:36.272Z,13.38
2022-11-17T12:30:06.189Z,11.73
2022-11-17T12:32:53.990Z,9.23
2022-11-17T12:35:34.635Z,11.83
2022-11-17T12:38:19.980Z,12.98
2022-11-17T12:40:48.365Z,12.90
2022-11-17T12:43:14.698Z,12.90
2022-11-17T12:45:53.090Z,14.73
2022-11-17T12:48:33.455Z,13.33
2022-11-17T12:51:25.746Z,14.32
2022-11-17T12:54:18.315Z,12.13
2022-11-17T12:56:50.072Z,13.75
2022-11-17T12:59:31.943Z,14.48
2022-11-17T13:02:23.141Z,16.40
2022-11-17T13:04:55.508Z,12.73
2022-11-17T13:07:25.374Z,14.23
2022-11-17T13:09:54.319Z,15.43
2022-11-17T13:12:23.231Z,15.63
2022-11-17T13:14:58.089Z,12.90
2022-11-17T13:17:30.714Z,15.55
2022-11-17T13:20:02.098Z,15.10
2022-11-17T13:22:28.534Z,13.82
2022-11-17T13:24:55.098Z,14.68
2022-11-17T13:27:29.970Z,15.40
2022-11-17T13:30:27.715Z,14.15
2022-11-17T13:32:55.755Z,15.05
2022-11-17T13:35:26.596Z,14.68
2022-11-17T13:38:11.043Z,14.25
2022-11-17T13:40:39.362Z,13.70
2022-11-17T13:43:10.972Z,14.65
2022-11-17T13:45:37.763Z,14.85
2022-11-17T13:48:04.169Z,15.35
2022-11-17T13:50:30.867Z,12.82
2022-11-17T13:53:13.438Z,12.83
2022-11-17T13:55:45.030Z,13.07
2022-11-17T13:58:43.600Z,12.13
2022-11-17T14:01:13.553Z,11.93
2022-11-17T14:03:42.626Z,13.65
2022-11-17T14:06:11.380Z,14.00
2022-11-17T14:08:39.978Z,12.55
2022-11-17T14:11:12.216Z,11.43
2022-11-17T14:13:42.284Z,11.63
2022-11-17T14:16:53.214Z,12.15
2022-11-17T14:19:20.287Z,12.43
2022-11-17T14:22:04.759Z,11.90
2022-11-17T14:24:32.630Z,12.35
2022-11-17T14:27:00.763Z,11.85
2022-11-17T14:29:28.271Z,14.10
2022-11-17T14:31:55.782Z,12.57
2022-11-17T14:34:22.810Z,12.48
2022-11-17T14:36:54.055Z,13.68
2022-11-17T14:39:20.753Z,13.35
2022-11-17T14:41:48.460Z,11.57
2022-11-17T14:44:15.004Z,11.47
2022-11-17T14:46:42.066Z,11.68
2022-11-17T14:49:08.771Z,11.02
2022-11-17T14:51:35.740Z,13.35
2022-11-17T14:54:03.015Z,12.75
2022-11-17T14:56:29.678Z,12.30
2022-11-17T14:58:58.224Z,13.45
2022-11-17T15:01:29.241Z,12.65
2022-11-17T15:03:58.011Z,11.77
2022-11-17T15:06:25.337Z,10.68
2022-11-17T15:09:00.381Z,11.47
2022-11-17T15:11:29.253Z,10.38
2022-11-17T15:14:01.693Z,10.60
2022-11-17T15:16:28.090Z,10.90
2022-11-17T15:18:54.455Z,11.43
2022-11-17T15:21:20.801Z,11.83
2022-11-17T15:23:47.195Z,11.68
2022-11-17T15:26:17.067Z,10.45
2022-11-17T15:28:43.430Z,13.32
2022-11-17T15:31:09.932Z,14.07
2022-11-17T15:33:36.864Z,12.97
2022-11-17T15:36:05.274Z,11.07
2022-11-17T15:38:31.937Z,12.15
2022-11-17T15:40:59.577Z,11.55
2022-11-17T15:43:28.423Z,12.85
2022-11-17T15:46:05.672Z,13.47
2022-11-17T15:48:33.315Z,15.77
2022-11-17T15:51:05.265Z,15.05
2022-11-17T15:53:38.375Z,15.15
2022-11-17T15:56:37.965Z,16.50
2022-11-17T15:59:06.144Z,13.47
2022-11-17T16:01:38.086Z,17.77
2022-11-17T16:04:10.006Z,17.23
2022-11-17T16:06:38.895Z,16.20
2022-11-17T16:09:08.991Z,16.23
2022-11-17T16:11:36.186Z,16.57
2022-11-17T16:14:04.094Z,17.52
2022-11-17T16:16:33.452Z,17.77
2022-11-17T16:19:00.010Z,16.63
2022-11-17T16:21:26.511Z,17.70
2022-11-17T16:23:55.125Z,16.17
2022-11-17T16:26:23.215Z,16.63
2022-11-17T16:28:49.739Z,16.38
2022-11-17T16:31:19.849Z,17.83
2022-11-17T16:33:50.805Z,19.27
2022-11-17T16:36:18.522Z,16.97
2022-11-17T16:38:59.939Z,18.30
2022-11-17T16:41:33.246Z,18.02
2022-11-17T16:44:00.510Z,17.83
2022-11-17T16:46:31.522Z,18.05
2022-11-17T16:49:02.981Z,17.10
2022-11-17T16:51:29.881Z,18.25
2022-11-17T16:53:58.518Z,18.27
2022-11-17T16:56:25.084Z,18.90
2022-11-17T16:58:51.871Z,21.13
2022-11-17T17:01:21.375Z,18.40
2022-11-17T17:03:47.775Z,19.02
2022-11-17T17:06:16.570Z,18.90
2022-11-17T17:08:44.256Z,19.92
2022-11-17T17:11:13.271Z,18.90
2022-11-17T17:13:40.535Z,20.87
2022-11-17T17:16:12.706Z,19.10
2022-11-17T17:18:39.940Z,20.73
2022-11-17T17:21:07.428Z,20.50
2022-11-17T17:23:34.572Z,22.58
2022-11-17T17:26:09.544Z,21.60
2022-11-17T17:28:40.436Z,22.10
2022-11-17T17:31:07.596Z,26.45
2022-11-17T17:33:36.007Z,24.88
2022-11-17T17:36:10.752Z,25.63
2022-11-17T17:38:37.726Z,21.10
2022-11-17T17:41:08.795Z,22.40
2022-11-17T17:43:35.887Z,24.75
2022-11-17T17:46:03.930Z,20.67
2022-11-17T17:48:31.371Z,19.55
2022-11-17T17:51:09.500Z,23.30
2022-11-17T17:53:37.336Z,22.05
2022-11-17T17:56:09.469Z,19.88
2022-11-17T17:58:40.438Z,20.33
2022-11-17T18:01:12.491Z,20.80
2022-11-17T18:03:40.154Z,20.37
2022-11-17T18:06:06.841Z,22.08
2022-11-17T18:08:35.513Z,20.05
2022-11-17T18:11:03.639Z,19.25
2022-11-17T18:13:31.709Z,20.65
2022-11-17T18:15:59.774Z,19.90
2022-11-17T18:18:26.136Z,20.38
2022-11-17T18:21:05.079Z,19.75
2022-11-17T18:23:34.222Z,20.98
2022-11-17T18:26:16.198Z,22.35
2022-11-17T18:28:45.088Z,22.00
2022-11-17T18:31:11.455Z,24.70
2022-11-17T18:33:37.892Z,19.45
2022-11-17T18:36:09.580Z,22.92
2022-11-17T18:38:37.057Z,21.45
2022-11-17T18:41:08.202Z,20.90
2022-11-17T18:43:35.923Z,19.80
2022-11-17T18:46:10.732Z,24.60
2022-11-17T18:48:40.274Z,22.13
2022-11-17T18:51:20.642Z,24.67
2022-11-17T18:53:48.637Z,22.07
2022-11-17T18:56:17.424Z,23.27
2022-11-17T18:58:44.345Z,22.55
2022-11-17T19:01:18.019Z,24.10
2022-11-17T19:03:46.473Z,24.80
2022-11-17T19:06:14.233Z,24.93
2022-11-17T19:08:41.342Z,24.65
2022-11-17T19:11:09.010Z,25.15
2022-11-17T19:13:37.175Z,27.02
2022-11-17T19:16:14.919Z,23.92
2022-11-17T19:18:42.082Z,23.77
2022-11-17T19:21:16.699Z,26.00
2022-11-17T19:23:51.021Z,24.90
2022-11-17T19:26:20.698Z,25.55
2022-11-17T19:28:48.015Z,26.50
2022-11-17T19:31:19.854Z,28.20
2022-11-17T19:33:47.993Z,28.13
2022-11-17T19:36:17.225Z,26.90
2022-11-17T19:38:45.430Z,29.63
2022-11-17T19:41:14.763Z,27.85
2022-11-17T19:43:45.110Z,26.43
2022-11-17T19:46:13.772Z,25.27
2022-11-17T19:48:41.065Z,28.00
2022-11-17T19:51:16.329Z,25.83
2022-11-17T19:53:43.496Z,28.05
2022-11-17T19:56:10.359Z,28.13
2022-11-17T19:58:36.734Z,27.10
2022-11-17T20:01:14.472Z,26.00
2022-11-17T20:03:41.890Z,30.55
2022-11-17T20:06:13.681Z,27.55
2022-11-17T20:08:40.486Z,27.03
2022-11-17T20:11:18.617Z,26.42
2022-11-17T20:13:46.080Z,27.40
2022-11-17T20:16:21.277Z,25.35
2022-11-17T20:18:53.367Z,26.48
2022-11-17T20:21:20.007Z,26.23
2022-11-17T20:23:47.163Z,27.35
2022-11-17T20:26:16.431Z,24.70
2022-11-17T20:28:43.464Z,26.85
2022-11-17T20:31:11.293Z,26.30
2022-11-17T20:33:38.707Z,27.27
2022-11-17T20:36:06.734Z,23.95
2022-11-17T20:38:33.866Z,24.75
2022-11-17T20:41:00.973Z,25.75
2022-11-17T20:43:28.051Z,23.88
2022-11-17T20:45:55.868Z,26.30
2022-11-17T20:48:23.155Z,25.30
2022-11-17T20:51:07.735Z,25.70
2022-11-17T20:53:34.513Z,24.40
2022-11-17T20:56:02.834Z,28.48
2022-11-17T20:58:29.634Z,23.93
2022-11-17T21:00:56.509Z,26.40
2022-11-17T21:03:23.512Z,26.75
2022-11-17T21:06:00.561Z,25.48
2022-11-17T21:08:29.362Z,25.63
2022-11-17T21:11:01.050Z,26.37
2022-11-17T21:13:28.185Z,25.52
2022-11-17T21:16:06.478Z,26.75
2022-11-17T21:18:33.027Z,25.63
2022-11-17T21:21:00.187Z,25.83
2022-11-17T21:23:27.880Z,26.13
2022-11-17T21:25:54.276Z,28.05
2022-11-17T21:28:20.793Z,25.92
2022-11-17T21:30:47.282Z,26.95
2022-11-17T21:33:13.747Z,25.80
2022-11-17T21:35:40.128Z,28.03
2022-11-17T21:38:06.879Z,24.88
2022-11-17T21:40:33.294Z,28.65
2022-11-17T21:43:00.115Z,25.63
2022-11-17T21:45:26.479Z,25.17
2022-11-17T21:47:59.073Z,26.67
2022-11-17T21:50:25.877Z,25.55
2022-11-17T21:52:52.253Z,27.30
2022-11-17T21:55:18.626Z,26.60
2022-11-17T21:57:45.000Z,27.00
2022-11-17T22:00:12.151Z,29.63
2022-11-17T22:02:38.538Z,26.42
2022-11-17T22:05:05.303Z,27.27
2022-11-17T22:07:32.149Z,29.00
2022-11-17T22:09:58.713Z,25.55
2022-11-17T22:12:25.115Z,29.17
2022-11-17T22:14:51.542Z,27.20
2022-11-17T22:17:18.047Z,28.63
2022-11-17T22:19:44.434Z,29.13
2022-11-17T22:22:11.174Z,28.80
2022-11-17T22:24:39.620Z,27.20
2022-11-17T22:27:06.543Z,31.35
2022-11-17T22:29:33.125Z,27.40
2022-11-17T22:31:59.625Z,30.27
2022-11-17T22:34:26.126Z,29.90
2022-11-17T22:36:52.484Z,28.47
2022-11-17T22:39:19.213Z,28.45
2022-11-17T22:41:45.844Z,26.48
2022-11-17T22:44:13.995Z,28.75
2022-11-17T22:46:40.677Z,28.20
2022-11-17T22:49:07.127Z,26.50
2022-11-17T22:51:52.063Z,29.83
2022-11-17T22:54:18.448Z,28.30
2022-11-17T22:56:45.482Z,28.92
2022-11-17T22:59:11.999Z,31.00
2022-11-17T23:01:38.463Z,29.40
2022-11-17T23:04:05.697Z,30.35
2022-11-17T23:06:32.095Z,29.85
2022-11-17T23:08:58.495Z,29.65
2022-11-17T23:11:41.358Z,29.67
2022-11-17T23:14:10.825Z,28.47
2022-11-17T23:16:37.536Z,29.63
2022-11-17T23:19:04.607Z,28.45
2022-11-17T23:21:31.019Z,31.25
2022-11-17T23:23:57.627Z,27.83
2022-11-17T23:26:24.072Z,27.87
2022-11-17T23:28:50.477Z,30.52
2022-11-17T23:31:17.780Z,29.30
2022-11-17T23:33:46.175Z,29.52
2022-11-17T23:36:17.856Z,30.45
2022-11-17T23:38:44.766Z,29.00
2022-11-17T23:41:14.118Z,29.98
2022-11-17T23:43:40.781Z,31.45
2022-11-17T23:46:10.698Z,28.75
2022-11-17T23:48:37.307Z,26.95
2022-11-17T23:51:08.003Z,28.23
2022-11-17T23:53:35.235Z,29.05
2022-11-17T23:56:02.268Z,29.25
2022-11-17T23:58:29.353Z,27.52
